sensor_id;sensor_type;location;lat;lon;timestamp;P1;durP1;ratioP1;P2;durP2;ratioP2
38529;SDS011;24301;54.332;48.386;2022-10-16T00:01:14;6.93;;;4.37;;
38529;SDS011;24301;54.332;48.386;2022-10-16T00:03:42;6.53;;;4.40;;
38529;SDS011;24301;54.332;48.386;2022-10-16T00:06:09;12.07;;;4.87;;
38529;SDS011;24301;54.332;48.386;2022-10-16T00:08:36;7.37;;;5.00;;
38529;SDS011;24301;54.332;48.386;2022-10-16T00:11:06;8.27;;;5.13;;
38529;SDS011;24301;54.332;48.386;2022-10-16T00:13:33;7.10;;;5.37;;
38529;SDS011;24301;54.332;48.386;2022-10-16T00:16:01;8.60;;;5.57;;
38529;SDS011;24301;54.332;48.386;2022-10-16T00:18:28;8.77;;;6.27;;
38529;SDS011;24301;54.332;48.386;2022-10-16T00:20:54;9.80;;;6.07;;
38529;SDS011;24301;54.332;48.386;2022-10-16T00:23:40;12.07;;;5.50;;
38529;SDS011;24301;54.332;48.386;2022-10-16T00:26:07;14.77;;;7.20;;
38529;SDS011;24301;54.332;48.386;2022-10-16T00:28:38;11.23;;;5.87;;
38529;SDS011;24301;54.332;48.386;2022-10-16T00:31:04;9.53;;;5.97;;
38529;SDS011;24301;54.332;48.386;2022-10-16T00:33:35;7.17;;;5.27;;
38529;SDS011;24301;54.332;48.386;2022-10-16T00:36:02;15.53;;;8.00;;
38529;SDS011;24301;54.332;48.386;2022-10-16T00:38:29;10.27;;;4.97;;
38529;SDS011;24301;54.332;48.386;2022-10-16T00:40:56;11.37;;;5.10;;
38529;SDS011;24301;54.332;48.386;2022-10-16T00:43:33;9.50;;;5.73;;
38529;SDS011;24301;54.332;48.386;2022-10-16T00:46:28;9.53;;;5.77;;
38529;SDS011;24301;54.332;48.386;2022-10-16T00:51:33;7.77;;;5.33;;
38529;SDS011;24301;54.332;48.386;2022-10-16T00:54:01;10.00;;;7.10;;
38529;SDS011;24301;54.332;48.386;2022-10-16T00:56:29;9.40;;;6.13;;
38529;SDS011;24301;54.332;48.386;2022-10-16T00:58:55;8.07;;;6.00;;
38529;SDS011;24301;54.332;48.386;2022-10-16T01:01:21;7.73;;;5.43;;
38529;SDS011;24301;54.332;48.386;2022-10-16T01:03:47;8.17;;;5.70;;
38529;SDS011;24301;54.332;48.386;2022-10-16T01:08:59;5.43;;;4.63;;
38529;SDS011;24301;54.332;48.386;2022-10-16T01:14:27;7.17;;;5.17;;
38529;SDS011;24301;54.332;48.386;2022-10-16T01:17:12;7.43;;;4.80;;
38529;SDS011;24301;54.332;48.386;2022-10-16T01:22:44;7.17;;;4.10;;
38529;SDS011;24301;54.332;48.386;2022-10-16T01:28:42;11.30;;;6.33;;
38529;SDS011;24301;54.332;48.386;2022-10-16T01:31:18;7.63;;;5.10;;
38529;SDS011;24301;54.332;48.386;2022-10-16T01:33:50;7.53;;;5.23;;
38529;SDS011;24301;54.332;48.386;2022-10-16T01:38:51;13.13;;;5.27;;
38529;SDS011;24301;54.332;48.386;2022-10-16T01:41:22;10.43;;;5.60;;
38529;SDS011;24301;54.332;48.386;2022-10-16T01:44:11;11.10;;;6.00;;
38529;SDS011;24301;54.332;48.386;2022-10-16T01:46:46;11.73;;;6.27;;
38529;SDS011;24301;54.332;48.386;2022-10-16T01:49:14;9.10;;;5.37;;
38529;SDS011;24301;54.332;48.386;2022-10-16T01:51:41;11.93;;;6.33;;
38529;SDS011;24301;54.332;48.386;2022-10-16T01:54:12;10.73;;;5.60;;
38529;SDS011;24301;54.332;48.386;2022-10-16T01:56:41;9.00;;;6.37;;
38529;SDS011;24301;54.332;48.386;2022-10-16T01:59:16;10.43;;;5.90;;
38529;SDS011;24301;54.332;48.386;2022-10-16T02:01:50;12.80;;;6.87;;
38529;SDS011;24301;54.332;48.386;2022-10-16T02:06:49;7.53;;;4.90;;
38529;SDS011;24301;54.332;48.386;2022-10-16T02:09:15;9.17;;;6.30;;
38529;SDS011;24301;54.332;48.386;2022-10-16T02:11:42;10.30;;;6.03;;
38529;SDS011;24301;54.332;48.386;2022-10-16T02:14:09;21.63;;;7.30;;
38529;SDS011;24301;54.332;48.386;2022-10-16T02:16:39;9.87;;;6.70;;
38529;SDS011;24301;54.332;48.386;2022-10-16T02:19:11;10.80;;;5.30;;
38529;SDS011;24301;54.332;48.386;2022-10-16T02:21:51;8.07;;;6.13;;
38529;SDS011;24301;54.332;48.386;2022-10-16T02:24:38;9.87;;;5.63;;
38529;SDS011;24301;54.332;48.386;2022-10-16T02:27:38;11.03;;;7.63;;
38529;SDS011;24301;54.332;48.386;2022-10-16T02:32:51;10.13;;;5.50;;
38529;SDS011;24301;54.332;48.386;2022-10-16T02:35:19;8.77;;;6.60;;
38529;SDS011;24301;54.332;48.386;2022-10-16T02:37:47;8.77;;;4.90;;
38529;SDS011;24301;54.332;48.386;2022-10-16T02:40:15;8.20;;;5.73;;
38529;SDS011;24301;54.332;48.386;2022-10-16T02:42:42;7.13;;;5.50;;
38529;SDS011;24301;54.332;48.386;2022-10-16T02:45:09;8.00;;;5.27;;
38529;SDS011;24301;54.332;48.386;2022-10-16T02:47:36;9.73;;;5.60;;
38529;SDS011;24301;54.332;48.386;2022-10-16T02:50:03;8.10;;;5.20;;
38529;SDS011;24301;54.332;48.386;2022-10-16T02:52:29;7.57;;;5.77;;
38529;SDS011;24301;54.332;48.386;2022-10-16T02:54:55;7.20;;;5.60;;
38529;SDS011;24301;54.332;48.386;2022-10-16T02:57:22;12.80;;;6.23;;
38529;SDS011;24301;54.332;48.386;2022-10-16T02:59:48;11.30;;;5.83;;
38529;SDS011;24301;54.332;48.386;2022-10-16T03:02:13;7.93;;;5.57;;
38529;SDS011;24301;54.332;48.386;2022-10-16T03:04:40;10.60;;;5.97;;
38529;SDS011;24301;54.332;48.386;2022-10-16T03:07:05;12.27;;;7.50;;
38529;SDS011;24301;54.332;48.386;2022-10-16T03:09:33;12.40;;;7.87;;
38529;SDS011;24301;54.332;48.386;2022-10-16T03:11:59;16.13;;;8.17;;
38529;SDS011;24301;54.332;48.386;2022-10-16T03:14:25;16.17;;;7.63;;
38529;SDS011;24301;54.332;48.386;2022-10-16T03:16:50;19.00;;;8.40;;
38529;SDS011;24301;54.332;48.386;2022-10-16T03:19:17;16.57;;;9.10;;
38529;SDS011;24301;54.332;48.386;2022-10-16T03:21:43;10.87;;;6.40;;
38529;SDS011;24301;54.332;48.386;2022-10-16T03:24:09;12.53;;;6.07;;
38529;SDS011;24301;54.332;48.386;2022-10-16T03:26:35;15.00;;;7.43;;
38529;SDS011;24301;54.332;48.386;2022-10-16T03:29:01;6.70;;;5.10;;
38529;SDS011;24301;54.332;48.386;2022-10-16T03:31:29;9.47;;;5.37;;
38529;SDS011;24301;54.332;48.386;2022-10-16T03:33:55;9.90;;;6.00;;
38529;SDS011;24301;54.332;48.386;2022-10-16T03:36:22;8.73;;;6.00;;
38529;SDS011;24301;54.332;48.386;2022-10-16T03:38:47;8.33;;;5.03;;
38529;SDS011;24301;54.332;48.386;2022-10-16T03:41:13;8.97;;;6.63;;
38529;SDS011;24301;54.332;48.386;2022-10-16T03:43:39;17.17;;;9.67;;
38529;SDS011;24301;54.332;48.386;2022-10-16T03:46:05;17.10;;;9.77;;
38529;SDS011;24301;54.332;48.386;2022-10-16T03:48:31;17.37;;;10.40;;
38529;SDS011;24301;54.332;48.386;2022-10-16T03:50:58;18.77;;;10.97;;
38529;SDS011;24301;54.332;48.386;2022-10-16T03:53:24;21.97;;;12.67;;
38529;SDS011;24301;54.332;48.386;2022-10-16T03:55:50;25.03;;;15.40;;
38529;SDS011;24301;54.332;48.386;2022-10-16T03:58:19;21.27;;;13.77;;
38529;SDS011;24301;54.332;48.386;2022-10-16T04:00:45;20.13;;;13.40;;
38529;SDS011;24301;54.332;48.386;2022-10-16T04:03:12;24.40;;;11.40;;
38529;SDS011;24301;54.332;48.386;2022-10-16T04:05:38;15.47;;;10.90;;
38529;SDS011;24301;54.332;48.386;2022-10-16T04:08:04;14.80;;;9.20;;
38529;SDS011;24301;54.332;48.386;2022-10-16T04:10:30;13.10;;;7.30;;
38529;SDS011;24301;54.332;48.386;2022-10-16T04:12:56;12.57;;;8.90;;
38529;SDS011;24301;54.332;48.386;2022-10-16T04:15:25;13.83;;;8.10;;
38529;SDS011;24301;54.332;48.386;2022-10-16T04:17:51;12.30;;;8.10;;
38529;SDS011;24301;54.332;48.386;2022-10-16T04:20:17;17.47;;;10.73;;
38529;SDS011;24301;54.332;48.386;2022-10-16T04:22:44;14.23;;;9.87;;
38529;SDS011;24301;54.332;48.386;2022-10-16T04:25:10;15.03;;;10.27;;
38529;SDS011;24301;54.332;48.386;2022-10-16T04:27:38;17.80;;;10.53;;
38529;SDS011;24301;54.332;48.386;2022-10-16T04:30:04;17.53;;;10.37;;
38529;SDS011;24301;54.332;48.386;2022-10-16T04:32:31;16.73;;;10.47;;
38529;SDS011;24301;54.332;48.386;2022-10-16T04:34:57;18.97;;;9.97;;
38529;SDS011;24301;54.332;48.386;2022-10-16T04:37:23;16.93;;;9.97;;
38529;SDS011;24301;54.332;48.386;2022-10-16T04:39:50;18.20;;;10.57;;
38529;SDS011;24301;54.332;48.386;2022-10-16T04:42:16;13.63;;;8.80;;
38529;SDS011;24301;54.332;48.386;2022-10-16T04:44:42;18.00;;;8.70;;
38529;SDS011;24301;54.332;48.386;2022-10-16T04:47:08;15.70;;;9.93;;
38529;SDS011;24301;54.332;48.386;2022-10-16T04:49:34;20.77;;;11.23;;
38529;SDS011;24301;54.332;48.386;2022-10-16T04:52:00;17.63;;;11.50;;
38529;SDS011;24301;54.332;48.386;2022-10-16T04:54:26;18.33;;;11.37;;
38529;SDS011;24301;54.332;48.386;2022-10-16T04:56:52;16.73;;;12.20;;
38529;SDS011;24301;54.332;48.386;2022-10-16T04:59:18;16.80;;;11.93;;
38529;SDS011;24301;54.332;48.386;2022-10-16T05:01:45;22.00;;;12.00;;
38529;SDS011;24301;54.332;48.386;2022-10-16T05:04:16;18.40;;;12.23;;
38529;SDS011;24301;54.332;48.386;2022-10-16T05:06:42;18.97;;;12.93;;
38529;SDS011;24301;54.332;48.386;2022-10-16T05:09:08;18.13;;;11.03;;
38529;SDS011;24301;54.332;48.386;2022-10-16T05:11:34;15.83;;;9.73;;
38529;SDS011;24301;54.332;48.386;2022-10-16T05:14:00;19.03;;;12.27;;
38529;SDS011;24301;54.332;48.386;2022-10-16T05:16:27;14.27;;;10.47;;
38529;SDS011;24301;54.332;48.386;2022-10-16T05:18:53;20.70;;;11.13;;
38529;SDS011;24301;54.332;48.386;2022-10-16T05:21:19;21.37;;;10.83;;
38529;SDS011;24301;54.332;48.386;2022-10-16T05:23:46;15.30;;;9.43;;
38529;SDS011;24301;54.332;48.386;2022-10-16T05:26:11;18.10;;;10.93;;
38529;SDS011;24301;54.332;48.386;2022-10-16T05:28:37;17.50;;;11.43;;
38529;SDS011;24301;54.332;48.386;2022-10-16T05:31:07;13.27;;;9.80;;
38529;SDS011;24301;54.332;48.386;2022-10-16T05:33:34;15.83;;;10.63;;
38529;SDS011;24301;54.332;48.386;2022-10-16T05:36:01;14.57;;;9.97;;
38529;SDS011;24301;54.332;48.386;2022-10-16T05:38:31;13.40;;;9.40;;
38529;SDS011;24301;54.332;48.386;2022-10-16T05:40:57;14.23;;;9.37;;
38529;SDS011;24301;54.332;48.386;2022-10-16T05:43:23;15.87;;;8.60;;
38529;SDS011;24301;54.332;48.386;2022-10-16T05:48:25;13.65;;;8.75;;
38529;SDS011;24301;54.332;48.386;2022-10-16T05:51:02;12.18;;;8.52;;
38529;SDS011;24301;54.332;48.386;2022-10-16T05:53:30;11.18;;;7.43;;
38529;SDS011;24301;54.332;48.386;2022-10-16T05:55:57;11.45;;;6.85;;
38529;SDS011;24301;54.332;48.386;2022-10-16T05:58:24;9.27;;;6.60;;
38529;SDS011;24301;54.332;48.386;2022-10-16T06:00:57;8.30;;;6.10;;
38529;SDS011;24301;54.332;48.386;2022-10-16T06:03:26;9.40;;;5.57;;
38529;SDS011;24301;54.332;48.386;2022-10-16T06:05:52;11.50;;;7.32;;
38529;SDS011;24301;54.332;48.386;2022-10-16T06:08:19;9.70;;;6.85;;
38529;SDS011;24301;54.332;48.386;2022-10-16T06:10:45;10.50;;;6.45;;
38529;SDS011;24301;54.332;48.386;2022-10-16T06:13:12;10.95;;;6.70;;
38529;SDS011;24301;54.332;48.386;2022-10-16T06:15:39;13.60;;;7.18;;
38529;SDS011;24301;54.332;48.386;2022-10-16T06:18:10;10.40;;;6.40;;
38529;SDS011;24301;54.332;48.386;2022-10-16T06:20:36;14.70;;;7.82;;
38529;SDS011;24301;54.332;48.386;2022-10-16T06:23:03;14.32;;;8.27;;
38529;SDS011;24301;54.332;48.386;2022-10-16T06:25:32;10.23;;;6.38;;
38529;SDS011;24301;54.332;48.386;2022-10-16T06:27:59;11.75;;;6.43;;
38529;SDS011;24301;54.332;48.386;2022-10-16T06:30:25;9.93;;;6.38;;
38529;SDS011;24301;54.332;48.386;2022-10-16T06:32:50;9.82;;;6.75;;
38529;SDS011;24301;54.332;48.386;2022-10-16T06:35:16;11.25;;;6.00;;
38529;SDS011;24301;54.332;48.386;2022-10-16T06:37:42;13.52;;;6.95;;
38529;SDS011;24301;54.332;48.386;2022-10-16T06:40:08;8.30;;;6.18;;
38529;SDS011;24301;54.332;48.386;2022-10-16T06:42:34;11.10;;;6.55;;
38529;SDS011;24301;54.332;48.386;2022-10-16T06:45:00;8.73;;;6.45;;
38529;SDS011;24301;54.332;48.386;2022-10-16T06:47:27;15.93;;;8.30;;
38529;SDS011;24301;54.332;48.386;2022-10-16T06:49:53;9.30;;;6.50;;
38529;SDS011;24301;54.332;48.386;2022-10-16T06:52:19;10.02;;;7.20;;
38529;SDS011;24301;54.332;48.386;2022-10-16T06:54:45;10.10;;;6.53;;
38529;SDS011;24301;54.332;48.386;2022-10-16T06:57:11;11.95;;;6.78;;
38529;SDS011;24301;54.332;48.386;2022-10-16T06:59:36;10.23;;;5.93;;
38529;SDS011;24301;54.332;48.386;2022-10-16T07:02:05;10.35;;;6.45;;
38529;SDS011;24301;54.332;48.386;2022-10-16T07:04:32;8.15;;;4.28;;
38529;SDS011;24301;54.332;48.386;2022-10-16T07:07:00;7.20;;;4.07;;
38529;SDS011;24301;54.332;48.386;2022-10-16T07:09:26;6.85;;;3.17;;
38529;SDS011;24301;54.332;48.386;2022-10-16T07:11:52;7.38;;;4.07;;
38529;SDS011;24301;54.332;48.386;2022-10-16T07:14:23;4.20;;;3.67;;
38529;SDS011;24301;54.332;48.386;2022-10-16T07:16:49;5.57;;;3.58;;
38529;SDS011;24301;54.332;48.386;2022-10-16T07:19:15;4.53;;;3.58;;
38529;SDS011;24301;54.332;48.386;2022-10-16T07:21:43;4.65;;;3.40;;
38529;SDS011;24301;54.332;48.386;2022-10-16T07:24:13;5.57;;;3.20;;
38529;SDS011;24301;54.332;48.386;2022-10-16T07:26:41;4.75;;;2.78;;
38529;SDS011;24301;54.332;48.386;2022-10-16T07:29:15;5.60;;;3.70;;
38529;SDS011;24301;54.332;48.386;2022-10-16T07:31:45;4.93;;;3.10;;
38529;SDS011;24301;54.332;48.386;2022-10-16T07:34:13;8.55;;;3.72;;
38529;SDS011;24301;54.332;48.386;2022-10-16T07:36:40;4.00;;;3.13;;
38529;SDS011;24301;54.332;48.386;2022-10-16T07:39:07;3.97;;;3.20;;
38529;SDS011;24301;54.332;48.386;2022-10-16T07:41:33;6.97;;;3.70;;
38529;SDS011;24301;54.332;48.386;2022-10-16T07:44:02;4.53;;;3.45;;
38529;SDS011;24301;54.332;48.386;2022-10-16T07:46:29;5.72;;;4.63;;
38529;SDS011;24301;54.332;48.386;2022-10-16T07:48:56;6.55;;;4.43;;
38529;SDS011;24301;54.332;48.386;2022-10-16T07:51:23;5.43;;;3.92;;
38529;SDS011;24301;54.332;48.386;2022-10-16T07:53:50;5.97;;;3.40;;
38529;SDS011;24301;54.332;48.386;2022-10-16T07:56:17;4.75;;;3.85;;
38529;SDS011;24301;54.332;48.386;2022-10-16T07:58:44;4.13;;;3.35;;
38529;SDS011;24301;54.332;48.386;2022-10-16T08:01:11;5.47;;;4.10;;
38529;SDS011;24301;54.332;48.386;2022-10-16T08:03:43;6.97;;;4.00;;
38529;SDS011;24301;54.332;48.386;2022-10-16T08:06:14;11.55;;;5.93;;
38529;SDS011;24301;54.332;48.386;2022-10-16T08:08:40;15.50;;;10.38;;
38529;SDS011;24301;54.332;48.386;2022-10-16T08:11:06;10.90;;;6.43;;
38529;SDS011;24301;54.332;48.386;2022-10-16T08:13:32;8.63;;;4.35;;
38529;SDS011;24301;54.332;48.386;2022-10-16T08:15:59;6.88;;;4.15;;
38529;SDS011;24301;54.332;48.386;2022-10-16T08:18:25;6.55;;;4.20;;
38529;SDS011;24301;54.332;48.386;2022-10-16T08:20:58;5.30;;;4.40;;
38529;SDS011;24301;54.332;48.386;2022-10-16T08:23:25;5.30;;;4.07;;
38529;SDS011;24301;54.332;48.386;2022-10-16T08:25:53;9.02;;;5.43;;
38529;SDS011;24301;54.332;48.386;2022-10-16T08:28:23;8.70;;;5.80;;
38529;SDS011;24301;54.332;48.386;2022-10-16T08:30:55;5.93;;;3.78;;
38529;SDS011;24301;54.332;48.386;2022-10-16T08:33:22;7.57;;;4.03;;
38529;SDS011;24301;54.332;48.386;2022-10-16T08:35:52;4.90;;;3.67;;
38529;SDS011;24301;54.332;48.386;2022-10-16T08:38:19;6.65;;;4.18;;
38529;SDS011;24301;54.332;48.386;2022-10-16T08:40:45;7.05;;;4.75;;
38529;SDS011;24301;54.332;48.386;2022-10-16T08:43:21;9.63;;;6.10;;
38529;SDS011;24301;54.332;48.386;2022-10-16T08:51:07;5.72;;;3.40;;
38529;SDS011;24301;54.332;48.386;2022-10-16T08:53:40;4.70;;;3.33;;
38529;SDS011;24301;54.332;48.386;2022-10-16T08:56:11;5.30;;;2.80;;
38529;SDS011;24301;54.332;48.386;2022-10-16T08:58:37;3.97;;;3.05;;
38529;SDS011;24301;54.332;48.386;2022-10-16T09:01:03;9.43;;;3.63;;
38529;SDS011;24301;54.332;48.386;2022-10-16T09:11:40;7.82;;;4.45;;
38529;SDS011;24301;54.332;48.386;2022-10-16T09:16:40;5.50;;;3.60;;
38529;SDS011;24301;54.332;48.386;2022-10-16T09:19:20;6.63;;;4.00;;
38529;SDS011;24301;54.332;48.386;2022-10-16T09:22:10;4.30;;;3.33;;
38529;SDS011;24301;54.332;48.386;2022-10-16T09:24:40;5.32;;;3.22;;
38529;SDS011;24301;54.332;48.386;2022-10-16T09:27:13;6.97;;;3.40;;
38529;SDS011;24301;54.332;48.386;2022-10-16T09:29:40;4.20;;;2.87;;
38529;SDS011;24301;54.332;48.386;2022-10-16T09:32:14;4.40;;;2.93;;
38529;SDS011;24301;54.332;48.386;2022-10-16T09:34:52;4.77;;;3.23;;
38529;SDS011;24301;54.332;48.386;2022-10-16T09:37:22;5.67;;;4.43;;
38529;SDS011;24301;54.332;48.386;2022-10-16T09:39:51;5.70;;;3.77;;
38529;SDS011;24301;54.332;48.386;2022-10-16T09:44:51;4.97;;;2.58;;
38529;SDS011;24301;54.332;48.386;2022-10-16T09:47:25;4.60;;;3.13;;
38529;SDS011;24301;54.332;48.386;2022-10-16T09:49:54;4.13;;;2.83;;
38529;SDS011;24301;54.332;48.386;2022-10-16T09:52:28;5.57;;;3.13;;
38529;SDS011;24301;54.332;48.386;2022-10-16T09:54:59;6.03;;;4.03;;
38529;SDS011;24301;54.332;48.386;2022-10-16T09:57:28;7.80;;;3.72;;
38529;SDS011;24301;54.332;48.386;2022-10-16T09:59:56;8.47;;;4.40;;
38529;SDS011;24301;54.332;48.386;2022-10-16T10:02:28;5.03;;;3.20;;
38529;SDS011;24301;54.332;48.386;2022-10-16T10:07:24;4.70;;;3.08;;
38529;SDS011;24301;54.332;48.386;2022-10-16T10:09:59;3.53;;;2.30;;
38529;SDS011;24301;54.332;48.386;2022-10-16T10:12:28;2.83;;;2.37;;
38529;SDS011;24301;54.332;48.386;2022-10-16T10:15:07;4.88;;;2.28;;
38529;SDS011;24301;54.332;48.386;2022-10-16T10:17:50;4.47;;;3.00;;
38529;SDS011;24301;54.332;48.386;2022-10-16T10:22:56;4.40;;;3.03;;
38529;SDS011;24301;54.332;48.386;2022-10-16T10:30:56;2.55;;;1.83;;
38529;SDS011;24301;54.332;48.386;2022-10-16T10:41:35;3.53;;;2.40;;
38529;SDS011;24301;54.332;48.386;2022-10-16T10:47:31;4.93;;;2.85;;
38529;SDS011;24301;54.332;48.386;2022-10-16T11:01:14;5.30;;;3.20;;
38529;SDS011;24301;54.332;48.386;2022-10-16T11:06:18;4.07;;;2.30;;
38529;SDS011;24301;54.332;48.386;2022-10-16T11:09:00;4.55;;;2.40;;
38529;SDS011;24301;54.332;48.386;2022-10-16T11:11:36;4.65;;;2.50;;
38529;SDS011;24301;54.332;48.386;2022-10-16T11:17:13;3.70;;;2.13;;
38529;SDS011;24301;54.332;48.386;2022-10-16T11:22:36;6.20;;;3.35;;
38529;SDS011;24301;54.332;48.386;2022-10-16T11:30:52;6.45;;;3.35;;
38529;SDS011;24301;54.332;48.386;2022-10-16T11:39:10;5.33;;;3.33;;
38529;SDS011;24301;54.332;48.386;2022-10-16T11:41:49;7.10;;;3.03;;
38529;SDS011;24301;54.332;48.386;2022-10-16T11:47:44;12.70;;;3.43;;
38529;SDS011;24301;54.332;48.386;2022-10-16T11:55:27;6.47;;;3.67;;
38529;SDS011;24301;54.332;48.386;2022-10-16T11:58:37;5.77;;;3.53;;
38529;SDS011;24301;54.332;48.386;2022-10-16T12:07:18;7.63;;;3.93;;
38529;SDS011;24301;54.332;48.386;2022-10-16T12:09:53;6.37;;;3.43;;
38529;SDS011;24301;54.332;48.386;2022-10-16T12:15:15;10.30;;;4.40;;
38529;SDS011;24301;54.332;48.386;2022-10-16T12:17:50;7.97;;;4.60;;
38529;SDS011;24301;54.332;48.386;2022-10-16T12:22:48;10.73;;;6.20;;
38529;SDS011;24301;54.332;48.386;2022-10-16T12:25:40;10.70;;;6.53;;
38529;SDS011;24301;54.332;48.386;2022-10-16T12:30:40;10.03;;;6.70;;
38529;SDS011;24301;54.332;48.386;2022-10-16T12:35:50;11.83;;;7.47;;
38529;SDS011;24301;54.332;48.386;2022-10-16T12:38:21;10.93;;;6.07;;
38529;SDS011;24301;54.332;48.386;2022-10-16T12:41:07;8.50;;;5.87;;
38529;SDS011;24301;54.332;48.386;2022-10-16T12:43:49;9.47;;;5.93;;
38529;SDS011;24301;54.332;48.386;2022-10-16T12:48:42;8.43;;;4.80;;
38529;SDS011;24301;54.332;48.386;2022-10-16T12:51:23;11.33;;;5.73;;
38529;SDS011;24301;54.332;48.386;2022-10-16T12:54:05;18.70;;;6.93;;
38529;SDS011;24301;54.332;48.386;2022-10-16T13:30:22;14.07;;;8.37;;
38529;SDS011;24301;54.332;48.386;2022-10-16T13:32:54;12.73;;;7.68;;
38529;SDS011;24301;54.332;48.386;2022-10-16T13:35:31;11.90;;;6.93;;
38529;SDS011;24301;54.332;48.386;2022-10-16T13:38:05;8.40;;;5.23;;
38529;SDS011;24301;54.332;48.386;2022-10-16T13:40:34;7.93;;;4.50;;
38529;SDS011;24301;54.332;48.386;2022-10-16T13:43:00;6.93;;;4.60;;
38529;SDS011;24301;54.332;48.386;2022-10-16T13:45:27;9.73;;;5.97;;
38529;SDS011;24301;54.332;48.386;2022-10-16T13:48:03;9.30;;;6.87;;
38529;SDS011;24301;54.332;48.386;2022-10-16T13:50:30;9.70;;;7.13;;
38529;SDS011;24301;54.332;48.386;2022-10-16T13:53:12;16.77;;;10.43;;
38529;SDS011;24301;54.332;48.386;2022-10-16T13:55:39;17.97;;;11.33;;
38529;SDS011;24301;54.332;48.386;2022-10-16T13:58:10;20.03;;;12.57;;
38529;SDS011;24301;54.332;48.386;2022-10-16T14:00:38;19.05;;;12.45;;
38529;SDS011;24301;54.332;48.386;2022-10-16T14:03:07;17.57;;;13.27;;
38529;SDS011;24301;54.332;48.386;2022-10-16T14:05:47;22.10;;;13.53;;
38529;SDS011;24301;54.332;48.386;2022-10-16T14:08:15;15.77;;;11.27;;
38529;SDS011;24301;54.332;48.386;2022-10-16T14:10:41;15.90;;;12.17;;
38529;SDS011;24301;54.332;48.386;2022-10-16T14:13:07;14.60;;;10.43;;
38529;SDS011;24301;54.332;48.386;2022-10-16T14:15:45;18.93;;;10.73;;
38529;SDS011;24301;54.332;48.386;2022-10-16T14:18:19;15.23;;;11.23;;
38529;SDS011;24301;54.332;48.386;2022-10-16T14:20:48;18.03;;;13.60;;
38529;SDS011;24301;54.332;48.386;2022-10-16T14:23:22;15.73;;;12.07;;
38529;SDS011;24301;54.332;48.386;2022-10-16T14:25:54;16.40;;;13.17;;
38529;SDS011;24301;54.332;48.386;2022-10-16T14:28:40;23.17;;;15.87;;
38529;SDS011;24301;54.332;48.386;2022-10-16T14:31:27;38.57;;;25.63;;
38529;SDS011;24301;54.332;48.386;2022-10-16T14:33:55;24.33;;;15.17;;
38529;SDS011;24301;54.332;48.386;2022-10-16T14:36:22;23.73;;;14.83;;
38529;SDS011;24301;54.332;48.386;2022-10-16T14:38:50;21.13;;;14.00;;
38529;SDS011;24301;54.332;48.386;2022-10-16T14:41:24;16.47;;;12.63;;
38529;SDS011;24301;54.332;48.386;2022-10-16T14:43:51;16.73;;;12.40;;
38529;SDS011;24301;54.332;48.386;2022-10-16T14:46:21;16.93;;;10.40;;
38529;SDS011;24301;54.332;48.386;2022-10-16T14:49:00;14.30;;;8.90;;
38529;SDS011;24301;54.332;48.386;2022-10-16T14:53:54;26.13;;;16.20;;
38529;SDS011;24301;54.332;48.386;2022-10-16T14:56:24;24.23;;;15.00;;
38529;SDS011;24301;54.332;48.386;2022-10-16T14:58:53;17.27;;;11.13;;
38529;SDS011;24301;54.332;48.386;2022-10-16T15:01:21;12.73;;;9.00;;
38529;SDS011;24301;54.332;48.386;2022-10-16T15:03:47;14.27;;;7.73;;
38529;SDS011;24301;54.332;48.386;2022-10-16T15:06:14;8.80;;;5.67;;
38529;SDS011;24301;54.332;48.386;2022-10-16T15:08:41;8.13;;;5.23;;
38529;SDS011;24301;54.332;48.386;2022-10-16T15:11:12;11.60;;;7.10;;
38529;SDS011;24301;54.332;48.386;2022-10-16T15:13:39;8.10;;;6.10;;
38529;SDS011;24301;54.332;48.386;2022-10-16T15:16:07;10.77;;;7.30;;
38529;SDS011;24301;54.332;48.386;2022-10-16T15:18:36;9.47;;;6.90;;
38529;SDS011;24301;54.332;48.386;2022-10-16T15:21:02;7.73;;;5.40;;
38529;SDS011;24301;54.332;48.386;2022-10-16T15:23:34;23.93;;;11.83;;
38529;SDS011;24301;54.332;48.386;2022-10-16T15:26:04;23.57;;;13.37;;
38529;SDS011;24301;54.332;48.386;2022-10-16T15:28:29;17.23;;;11.43;;
38529;SDS011;24301;54.332;48.386;2022-10-16T15:30:56;10.80;;;6.67;;
38529;SDS011;24301;54.332;48.386;2022-10-16T15:33:23;11.50;;;6.63;;
38529;SDS011;24301;54.332;48.386;2022-10-16T15:35:53;8.83;;;5.93;;
38529;SDS011;24301;54.332;48.386;2022-10-16T15:38:20;7.47;;;5.63;;
38529;SDS011;24301;54.332;48.386;2022-10-16T15:40:48;10.63;;;7.00;;
38529;SDS011;24301;54.332;48.386;2022-10-16T15:43:14;10.07;;;6.20;;
38529;SDS011;24301;54.332;48.386;2022-10-16T15:45:40;13.07;;;7.17;;
38529;SDS011;24301;54.332;48.386;2022-10-16T15:48:09;8.50;;;5.40;;
38529;SDS011;24301;54.332;48.386;2022-10-16T15:50:37;6.00;;;4.17;;
38529;SDS011;24301;54.332;48.386;2022-10-16T15:53:03;6.77;;;4.47;;
38529;SDS011;24301;54.332;48.386;2022-10-16T15:55:29;11.53;;;5.73;;
38529;SDS011;24301;54.332;48.386;2022-10-16T15:57:55;9.87;;;6.93;;
38529;SDS011;24301;54.332;48.386;2022-10-16T16:00:22;13.00;;;9.40;;
38529;SDS011;24301;54.332;48.386;2022-10-16T16:02:51;17.97;;;10.70;;
38529;SDS011;24301;54.332;48.386;2022-10-16T16:05:18;12.43;;;8.73;;
38529;SDS011;24301;54.332;48.386;2022-10-16T16:07:46;34.00;;;16.93;;
38529;SDS011;24301;54.332;48.386;2022-10-16T16:10:12;43.83;;;22.47;;
38529;SDS011;24301;54.332;48.386;2022-10-16T16:12:38;27.67;;;15.20;;
38529;SDS011;24301;54.332;48.386;2022-10-16T16:15:05;17.10;;;10.47;;
38529;SDS011;24301;54.332;48.386;2022-10-16T16:17:32;10.83;;;6.63;;
38529;SDS011;24301;54.332;48.386;2022-10-16T16:19:59;11.00;;;7.20;;
38529;SDS011;24301;54.332;48.386;2022-10-16T16:22:25;10.10;;;6.30;;
38529;SDS011;24301;54.332;48.386;2022-10-16T16:24:51;9.73;;;5.77;;
38529;SDS011;24301;54.332;48.386;2022-10-16T16:27:17;9.90;;;6.70;;
38529;SDS011;24301;54.332;48.386;2022-10-16T16:30:04;9.50;;;6.27;;
38529;SDS011;24301;54.332;48.386;2022-10-16T16:32:36;7.87;;;4.73;;
38529;SDS011;24301;54.332;48.386;2022-10-16T16:35:02;14.53;;;7.40;;
38529;SDS011;24301;54.332;48.386;2022-10-16T16:37:28;14.50;;;6.97;;
38529;SDS011;24301;54.332;48.386;2022-10-16T16:39:54;19.33;;;11.10;;
38529;SDS011;24301;54.332;48.386;2022-10-16T16:42:26;11.90;;;7.53;;
38529;SDS011;24301;54.332;48.386;2022-10-16T16:44:53;15.10;;;7.70;;
38529;SDS011;24301;54.332;48.386;2022-10-16T16:47:19;15.37;;;5.07;;
38529;SDS011;24301;54.332;48.386;2022-10-16T16:49:45;12.30;;;7.50;;
38529;SDS011;24301;54.332;48.386;2022-10-16T16:52:12;12.17;;;6.50;;
38529;SDS011;24301;54.332;48.386;2022-10-16T16:54:38;9.63;;;4.73;;
38529;SDS011;24301;54.332;48.386;2022-10-16T16:57:04;9.23;;;4.50;;
38529;SDS011;24301;54.332;48.386;2022-10-16T16:59:34;11.60;;;5.93;;
38529;SDS011;24301;54.332;48.386;2022-10-16T17:02:00;11.60;;;8.27;;
38529;SDS011;24301;54.332;48.386;2022-10-16T17:04:27;15.07;;;8.70;;
38529;SDS011;24301;54.332;48.386;2022-10-16T17:06:53;14.43;;;9.53;;
38529;SDS011;24301;54.332;48.386;2022-10-16T17:09:24;15.87;;;10.37;;
38529;SDS011;24301;54.332;48.386;2022-10-16T17:11:50;23.33;;;10.93;;
38529;SDS011;24301;54.332;48.386;2022-10-16T17:14:16;15.53;;;10.90;;
38529;SDS011;24301;54.332;48.386;2022-10-16T17:16:42;13.07;;;8.73;;
38529;SDS011;24301;54.332;48.386;2022-10-16T17:19:13;11.67;;;7.50;;